createdAt,value
2022-12-16T00:01:15.233Z,50.38
2022-12-16T00:03:44.195Z,49.17
2022-12-16T00:06:11.347Z,48.63
2022-12-16T00:08:39.657Z,53.35
2022-12-16T00:11:07.499Z,53.30
2022-12-16T00:13:36.585Z,46.88
2022-12-16T00:16:08.109Z,48.83
2022-12-16T00:18:35.527Z,46.67
2022-12-16T00:21:03.049Z,51.72
2022-12-16T00:23:30.561Z,51.45
2022-12-16T00:25:57.872Z,52.53
2022-12-16T00:28:25.237Z,54.78
2022-12-16T00:30:53.086Z,50.08
2022-12-16T00:33:23.813Z,44.55
2022-12-16T00:35:50.825Z,43.15
2022-12-16T00:38:19.077Z,45.97
2022-12-16T00:40:46.141Z,47.63
2022-12-16T00:43:13.158Z,46.00
2022-12-16T00:45:40.454Z,42.70
2022-12-16T00:48:08.248Z,42.13
2022-12-16T00:50:36.077Z,43.55
2022-12-16T00:53:03.223Z,45.88
2022-12-16T00:55:30.321Z,40.53
2022-12-16T00:57:57.392Z,42.13
2022-12-16T01:00:24.424Z,41.65
2022-12-16T01:02:53.574Z,46.17
2022-12-16T01:05:22.132Z,45.42
2022-12-16T01:07:49.130Z,44.65
2022-12-16T01:10:16.261Z,40.72
2022-12-16T01:12:43.290Z,43.22
2022-12-16T01:15:12.520Z,47.42
2022-12-16T01:17:39.956Z,43.05
2022-12-16T01:20:07.352Z,38.30
2022-12-16T01:22:34.885Z,38.90
2022-12-16T01:25:02.505Z,42.42
2022-12-16T01:27:29.849Z,41.25
2022-12-16T01:29:56.962Z,43.80
2022-12-16T01:32:24.189Z,44.30
2022-12-16T01:34:54.882Z,37.50
2022-12-16T01:37:23.144Z,37.22
2022-12-16T01:39:50.435Z,39.47
2022-12-16T01:42:18.707Z,39.67
2022-12-16T01:44:46.692Z,39.50
2022-12-16T01:47:16.004Z,38.88
2022-12-16T01:50:06.124Z,43.40
2022-12-16T01:52:35.015Z,41.97
2022-12-16T01:55:03.805Z,44.53
2022-12-16T01:57:34.157Z,39.17
2022-12-16T02:00:01.775Z,41.40
2022-12-16T02:02:28.914Z,42.92
2022-12-16T02:05:15.096Z,42.65
2022-12-16T02:07:42.110Z,44.95
2022-12-16T02:10:11.716Z,45.30
2022-12-16T02:12:57.809Z,52.42
2022-12-16T02:15:35.539Z,44.53
2022-12-16T02:18:17.922Z,45.03
2022-12-16T02:21:03.571Z,47.33
2022-12-16T02:23:50.932Z,44.28
2022-12-16T02:26:30.941Z,44.10
2022-12-16T02:29:21.294Z,45.08
2022-12-16T02:31:53.757Z,44.20
2022-12-16T02:37:11.990Z,47.25
2022-12-16T02:39:40.717Z,45.15
2022-12-16T02:42:14.003Z,47.53
2022-12-16T02:44:57.991Z,48.10
2022-12-16T02:49:53.160Z,51.55
2022-12-16T02:52:22.085Z,52.65
2022-12-16T02:54:50.210Z,49.25
2022-12-16T02:57:29.589Z,56.53
2022-12-16T03:00:07.492Z,50.70
2022-12-16T03:02:41.502Z,49.70
2022-12-16T03:05:13.073Z,44.28
2022-12-16T03:07:41.417Z,43.90
2022-12-16T03:10:11.089Z,43.83
2022-12-16T03:12:39.852Z,45.33
2022-12-16T03:15:07.769Z,43.92
2022-12-16T03:17:35.850Z,41.45
2022-12-16T03:20:35.369Z,43.80
2022-12-16T03:23:04.255Z,44.67
2022-12-16T03:25:32.522Z,42.60
2022-12-16T03:27:59.507Z,44.15
2022-12-16T03:30:30.652Z,47.10
2022-12-16T03:33:05.929Z,43.03
2022-12-16T03:35:38.309Z,43.97
2022-12-16T03:38:06.898Z,46.15
2022-12-16T03:40:34.526Z,44.25
2022-12-16T03:43:02.621Z,47.67
2022-12-16T03:45:37.107Z,45.90
2022-12-16T03:48:04.221Z,45.88
2022-12-16T03:50:33.456Z,48.80
2022-12-16T03:53:00.123Z,47.42
2022-12-16T03:55:27.229Z,47.42
2022-12-16T03:57:54.022Z,47.60
2022-12-16T04:00:21.104Z,49.63
2022-12-16T04:02:48.288Z,48.53
2022-12-16T04:05:15.679Z,48.65
2022-12-16T04:07:42.743Z,52.22
2022-12-16T04:10:10.368Z,55.10
2022-12-16T04:12:55.877Z,49.63
2022-12-16T04:15:42.010Z,53.20
2022-12-16T04:18:35.076Z,51.55
2022-12-16T04:21:21.422Z,51.97
2022-12-16T04:24:08.992Z,52.47
2022-12-16T04:26:55.985Z,53.50
2022-12-16T04:29:23.268Z,56.75
2022-12-16T04:31:50.694Z,55.90
2022-12-16T04:34:26.812Z,51.47
2022-12-16T04:37:17.018Z,55.70
2022-12-16T04:40:02.993Z,51.65
2022-12-16T04:42:48.857Z,56.03
2022-12-16T04:45:34.542Z,51.42
2022-12-16T04:48:20.460Z,51.67
2022-12-16T04:51:06.303Z,57.47
2022-12-16T04:53:52.037Z,55.50
2022-12-16T04:56:37.830Z,53.30
2022-12-16T04:59:23.488Z,56.80
2022-12-16T05:02:09.489Z,53.38
2022-12-16T05:04:55.286Z,56.65
2022-12-16T05:07:41.228Z,53.55
2022-12-16T05:10:27.213Z,54.90
2022-12-16T05:13:13.528Z,54.38
2022-12-16T05:15:59.895Z,63.53
2022-12-16T05:18:45.617Z,58.20
2022-12-16T05:21:31.601Z,58.20
2022-12-16T05:24:17.474Z,59.25
2022-12-16T05:27:03.450Z,58.88
2022-12-16T05:29:49.166Z,65.63
2022-12-16T05:32:35.097Z,64.07
2022-12-16T05:35:20.864Z,60.40
2022-12-16T05:38:06.755Z,65.53
2022-12-16T05:40:52.724Z,67.25
2022-12-16T05:43:38.591Z,65.97
2022-12-16T05:46:24.102Z,65.07
2022-12-16T05:49:09.326Z,71.32
2022-12-16T05:51:54.675Z,68.80
2022-12-16T05:54:40.002Z,69.25
2022-12-16T05:57:25.321Z,72.43
2022-12-16T06:00:11.146Z,73.10
2022-12-16T06:02:56.988Z,76.53
2022-12-16T06:05:42.487Z,69.88
2022-12-16T06:08:28.455Z,73.68
2022-12-16T06:11:14.207Z,72.38
2022-12-16T06:14:00.132Z,71.03
2022-12-16T06:16:46.021Z,76.28
2022-12-16T06:19:31.967Z,68.78
2022-12-16T06:22:17.983Z,74.68
2022-12-16T06:25:03.686Z,74.32
2022-12-16T06:27:50.968Z,75.63
2022-12-16T06:30:36.842Z,77.55
2022-12-16T06:33:22.720Z,78.35
2022-12-16T06:36:08.755Z,85.20
2022-12-16T06:38:54.581Z,89.35
2022-12-16T06:41:40.385Z,81.72
2022-12-16T06:44:26.333Z,76.63
2022-12-16T06:47:12.072Z,78.70
2022-12-16T06:50:08.377Z,73.80
2022-12-16T06:52:54.299Z,79.15
2022-12-16T06:55:40.156Z,72.28
2022-12-16T06:58:26.150Z,77.85
2022-12-16T07:01:12.050Z,77.50
2022-12-16T07:03:57.944Z,77.57
2022-12-16T07:06:43.735Z,83.68
2022-12-16T07:09:29.687Z,81.30
2022-12-16T07:12:15.523Z,81.28
2022-12-16T07:15:01.449Z,80.63
2022-12-16T07:17:47.351Z,78.63
2022-12-16T07:20:33.200Z,82.70
2022-12-16T07:23:30.382Z,76.82
2022-12-16T07:26:15.868Z,79.82
2022-12-16T07:29:01.847Z,74.60
2022-12-16T07:31:48.036Z,76.85
2022-12-16T07:34:40.084Z,73.70
2022-12-16T07:37:27.277Z,86.70
2022-12-16T07:40:13.234Z,72.25
2022-12-16T07:43:02.185Z,75.47
2022-12-16T07:45:47.988Z,80.68
2022-12-16T07:48:33.884Z,78.35
2022-12-16T07:51:20.007Z,73.72
2022-12-16T07:54:05.752Z,69.30
2022-12-16T07:56:51.621Z,71.20
2022-12-16T07:59:37.548Z,72.80
2022-12-16T08:02:23.418Z,71.00
2022-12-16T08:05:09.153Z,70.22
2022-12-16T08:07:54.878Z,69.45
2022-12-16T08:10:41.466Z,67.90
2022-12-16T08:13:27.360Z,74.82
2022-12-16T08:16:13.227Z,77.05
2022-12-16T08:18:59.021Z,70.05
2022-12-16T08:21:45.007Z,73.25
2022-12-16T08:24:30.930Z,78.43
2022-12-16T08:27:16.804Z,76.38
2022-12-16T08:30:02.507Z,77.38
2022-12-16T08:32:48.410Z,68.32
2022-12-16T08:35:34.443Z,75.40
2022-12-16T08:38:20.278Z,70.90
2022-12-16T08:41:06.044Z,67.72
2022-12-16T08:43:52.945Z,71.32
2022-12-16T08:46:39.483Z,74.65
2022-12-16T08:49:25.752Z,70.07
2022-12-16T08:52:11.482Z,71.15
2022-12-16T08:54:57.474Z,66.63
2022-12-16T08:57:43.140Z,70.80
2022-12-16T09:00:28.986Z,71.07
2022-12-16T09:03:15.637Z,64.35
2022-12-16T09:06:01.583Z,62.97
2022-12-16T09:08:47.961Z,61.38
2022-12-16T09:11:33.958Z,62.50
2022-12-16T09:14:19.756Z,64.65
2022-12-16T09:17:05.607Z,65.55
2022-12-16T09:19:51.520Z,63.78
2022-12-16T09:22:39.843Z,59.50
2022-12-16T09:25:25.897Z,65.40
2022-12-16T09:28:11.902Z,61.95
2022-12-16T09:30:57.895Z,66.95
2022-12-16T09:33:43.590Z,63.42
2022-12-16T09:36:29.421Z,65.85
2022-12-16T09:39:15.277Z,56.13
2022-12-16T09:42:05.099Z,60.03
2022-12-16T09:44:50.988Z,56.13
2022-12-16T09:47:55.865Z,62.22
2022-12-16T09:50:44.241Z,60.92
2022-12-16T09:53:32.155Z,61.55
2022-12-16T09:56:18.832Z,63.88
2022-12-16T09:59:10.633Z,60.35
2022-12-16T10:01:57.087Z,63.80
2022-12-16T10:04:44.295Z,66.72
2022-12-16T10:07:37.320Z,66.03
2022-12-16T10:10:41.836Z,64.38
2022-12-16T10:16:13.321Z,63.47
2022-12-16T10:19:01.884Z,66.15
2022-12-16T10:21:52.063Z,67.47
2022-12-16T10:24:42.919Z,67.72
2022-12-16T10:27:35.492Z,69.38
2022-12-16T10:30:22.289Z,65.85
2022-12-16T10:33:09.093Z,66.93
2022-12-16T10:35:56.385Z,66.63
2022-12-16T10:38:51.853Z,63.65
2022-12-16T10:41:39.504Z,64.50
2022-12-16T10:44:31.783Z,66.35
2022-12-16T10:47:17.672Z,61.85
2022-12-16T10:50:03.694Z,69.38
2022-12-16T10:52:49.456Z,65.32
2022-12-16T10:55:51.274Z,61.47
2022-12-16T10:58:49.573Z,59.80
2022-12-16T11:01:45.900Z,62.25
2022-12-16T11:04:46.997Z,65.88
2022-12-16T11:07:43.386Z,61.42
2022-12-16T11:10:42.986Z,62.70
2022-12-16T11:13:36.231Z,65.68
2022-12-16T11:16:25.653Z,61.75
2022-12-16T11:19:11.218Z,60.53
2022-12-16T11:21:56.985Z,59.28
2022-12-16T11:24:42.858Z,58.05
2022-12-16T11:27:40.542Z,59.67
2022-12-16T11:30:35.117Z,58.88
2022-12-16T11:33:26.072Z,58.22
2022-12-16T11:36:17.896Z,67.60
2022-12-16T11:39:07.782Z,58.00
2022-12-16T11:42:01.327Z,61.88
2022-12-16T11:44:54.376Z,49.10
2022-12-16T11:47:45.003Z,59.30
2022-12-16T11:50:33.154Z,58.97
2022-12-16T11:53:19.134Z,59.20
2022-12-16T11:56:12.651Z,61.47
2022-12-16T11:59:05.856Z,65.10
2022-12-16T12:01:55.364Z,64.63
2022-12-16T12:04:41.761Z,64.15
2022-12-16T12:07:41.129Z,62.45
2022-12-16T12:10:45.564Z,63.67
2022-12-16T12:13:46.299Z,59.97
2022-12-16T12:16:39.870Z,59.15
2022-12-16T12:19:31.504Z,55.83
2022-12-16T12:22:32.164Z,59.00
2022-12-16T12:25:22.533Z,56.20
2022-12-16T12:28:24.817Z,59.22
2022-12-16T12:31:50.313Z,58.22
2022-12-16T12:34:39.560Z,57.80
2022-12-16T12:37:40.669Z,61.95
2022-12-16T12:40:49.085Z,54.70
2022-12-16T12:43:47.336Z,51.35
2022-12-16T12:46:33.139Z,53.90
2022-12-16T12:49:52.257Z,57.50
2022-12-16T12:52:45.782Z,54.17
2022-12-16T12:55:31.726Z,46.30
2022-12-16T12:58:18.772Z,59.80
2022-12-16T13:01:08.036Z,56.65
2022-12-16T13:03:59.396Z,55.10
2022-12-16T13:06:45.182Z,56.10
2022-12-16T13:09:50.603Z,49.35
2022-12-16T13:12:54.477Z,54.08
2022-12-16T13:15:56.019Z,56.40
2022-12-16T13:18:43.332Z,55.72
2022-12-16T13:21:51.744Z,53.45
2022-12-16T13:24:56.042Z,52.78
2022-12-16T13:27:42.461Z,51.90
2022-12-16T13:30:31.137Z,51.80
2022-12-16T13:33:20.484Z,52.38
2022-12-16T13:36:13.782Z,50.30
2022-12-16T13:39:13.564Z,51.90
2022-12-16T13:41:58.782Z,52.25
2022-12-16T13:45:02.028Z,59.17
2022-12-16T13:48:13.050Z,53.63
2022-12-16T13:51:07.490Z,56.50
2022-12-16T13:54:12.612Z,54.33
2022-12-16T13:57:06.709Z,55.63
2022-12-16T13:59:56.111Z,57.17
2022-12-16T14:02:57.156Z,58.03
2022-12-16T14:05:47.735Z,59.67
2022-12-16T14:08:38.759Z,58.97
2022-12-16T14:11:32.747Z,55.88
2022-12-16T14:14:55.819Z,57.50
2022-12-16T14:17:53.282Z,60.03
2022-12-16T14:21:10.077Z,58.78
2022-12-16T14:24:29.210Z,56.85
2022-12-16T14:27:22.172Z,61.78
2022-12-16T14:30:07.557Z,58.80
2022-12-16T14:32:54.044Z,55.60
2022-12-16T14:35:45.445Z,61.38
2022-12-16T14:38:44.983Z,58.83
2022-12-16T14:41:42.027Z,62.70
2022-12-16T14:44:39.355Z,56.72
2022-12-16T14:47:30.555Z,62.00
2022-12-16T14:50:15.918Z,59.03
2022-12-16T14:53:01.232Z,63.38
2022-12-16T14:55:51.808Z,62.17
2022-12-16T14:58:39.329Z,63.30
2022-12-16T15:01:45.401Z,57.85
2022-12-16T15:04:39.613Z,55.00
2022-12-16T15:10:19.135Z,53.67
2022-12-16T15:13:06.496Z,56.33
2022-12-16T15:15:56.511Z,56.97
2022-12-16T15:18:58.323Z,53.92
2022-12-16T15:21:43.755Z,49.30
2022-12-16T15:24:34.604Z,54.47
2022-12-16T15:27:37.858Z,56.88
2022-12-16T15:30:51.219Z,50.50
2022-12-16T15:33:38.378Z,46.15
2022-12-16T15:36:24.789Z,48.22
2022-12-16T15:39:10.132Z,47.83
2022-12-16T15:41:56.810Z,53.13
2022-12-16T15:44:45.266Z,48.28
2022-12-16T15:47:43.828Z,48.55
2022-12-16T15:50:32.864Z,52.13
2022-12-16T15:53:54.421Z,53.50
2022-12-16T15:56:44.059Z,53.25
2022-12-16T15:59:49.089Z,57.05
2022-12-16T16:02:42.267Z,51.75
2022-12-16T16:05:39.715Z,39.95
2022-12-16T16:08:25.522Z,53.17
2022-12-16T16:11:10.753Z,54.55
2022-12-16T16:14:02.369Z,52.42
2022-12-16T16:16:50.337Z,52.83
2022-12-16T16:19:39.760Z,53.05
2022-12-16T16:22:30.301Z,53.55
2022-12-16T16:25:16.240Z,49.47
2022-12-16T16:28:02.189Z,50.05
2022-12-16T16:30:48.334Z,52.25
2022-12-16T16:33:34.618Z,52.22
2022-12-16T16:36:37.564Z,48.88
2022-12-16T16:39:23.145Z,53.95
2022-12-16T16:42:09.051Z,51.22
2022-12-16T16:44:54.808Z,52.67
2022-12-16T16:47:40.707Z,56.50
2022-12-16T16:50:26.557Z,55.95
2022-12-16T16:53:12.517Z,51.03
2022-12-16T16:55:58.277Z,58.13
2022-12-16T16:58:48.480Z,56.35
2022-12-16T17:01:36.145Z,51.78
2022-12-16T17:04:22.441Z,55.38
2022-12-16T17:07:08.340Z,55.88
2022-12-16T17:09:54.244Z,57.90
2022-12-16T17:12:49.149Z,55.03
2022-12-16T17:15:37.091Z,53.85
2022-12-16T17:18:23.119Z,55.55
2022-12-16T17:21:09.246Z,54.50
2022-12-16T17:23:55.167Z,55.67
2022-12-16T17:26:41.657Z,56.22
2022-12-16T17:29:34.010Z,56.08
2022-12-16T17:32:19.798Z,54.10
2022-12-16T17:35:05.727Z,59.08
2022-12-16T17:37:51.567Z,56.78
2022-12-16T17:40:37.651Z,55.53
2022-12-16T17:43:23.603Z,58.10
2022-12-16T17:46:27.355Z,63.60
2022-12-16T17:49:13.911Z,56.03
2022-12-16T17:51:59.890Z,61.40
2022-12-16T17:54:45.638Z,57.88
2022-12-16T17:57:31.734Z,69.55
2022-12-16T18:00:17.571Z,59.22
2022-12-16T18:03:03.659Z,59.78
2022-12-16T18:05:49.785Z,62.65
2022-12-16T18:08:35.609Z,63.03
2022-12-16T18:11:21.551Z,67.07
2022-12-16T18:14:07.434Z,66.40
2022-12-16T18:16:53.358Z,68.65
2022-12-16T18:19:39.328Z,68.40
2022-12-16T18:22:25.200Z,68.45
2022-12-16T18:25:10.985Z,73.55
2022-12-16T18:27:56.895Z,70.68
2022-12-16T18:30:42.683Z,65.72
2022-12-16T18:33:28.851Z,64.50
2022-12-16T18:36:14.699Z,67.20
2022-12-16T18:39:00.695Z,65.07
2022-12-16T18:41:46.577Z,61.28
2022-12-16T18:44:32.979Z,65.13
2022-12-16T18:47:19.130Z,61.22
2022-12-16T18:50:05.011Z,59.72
2022-12-16T18:53:01.520Z,60.67
2022-12-16T18:55:47.341Z,61.78
2022-12-16T19:01:39.147Z,62.08
2022-12-16T19:04:26.591Z,63.13
2022-12-16T19:07:12.439Z,68.18
2022-12-16T19:09:58.389Z,61.13
2022-12-16T19:12:44.344Z,66.03
2022-12-16T19:15:30.289Z,62.85
2022-12-16T19:18:16.108Z,66.47
2022-12-16T19:21:02.150Z,60.08
2022-12-16T19:23:47.929Z,68.28
2022-12-16T19:26:33.730Z,68.78
2022-12-16T19:29:19.487Z,64.85
2022-12-16T19:32:05.273Z,63.05
2022-12-16T19:34:51.147Z,60.67
2022-12-16T19:37:37.743Z,67.93
2022-12-16T19:40:24.118Z,63.42
2022-12-16T19:43:10.362Z,67.65
2022-12-16T19:45:56.660Z,72.70
2022-12-16T19:48:42.437Z,69.13
2022-12-16T19:51:28.264Z,69.82
2022-12-16T19:54:14.312Z,60.63
2022-12-16T19:57:00.147Z,61.95
2022-12-16T19:59:45.939Z,66.45
2022-12-16T20:02:31.818Z,56.25
2022-12-16T20:05:17.479Z,64.45
2022-12-16T20:08:03.395Z,62.10
2022-12-16T20:10:49.264Z,60.42
2022-12-16T20:13:35.032Z,61.35
2022-12-16T20:16:21.429Z,66.10
2022-12-16T20:19:07.231Z,65.28
2022-12-16T20:21:56.284Z,70.97
2022-12-16T20:24:42.702Z,68.03
2022-12-16T20:27:28.676Z,66.13
2022-12-16T20:30:14.475Z,68.95
2022-12-16T20:33:00.570Z,64.47
2022-12-16T20:35:46.359Z,61.30
2022-12-16T20:38:32.041Z,64.93
2022-12-16T20:41:18.547Z,69.93
2022-12-16T20:44:06.545Z,65.10
2022-12-16T20:46:56.168Z,63.97
2022-12-16T20:49:42.209Z,58.72
2022-12-16T20:52:28.271Z,60.35
2022-12-16T20:55:14.084Z,61.97
2022-12-16T20:57:59.764Z,64.03
2022-12-16T21:00:45.640Z,65.60
2022-12-16T21:03:30.747Z,55.08
2022-12-16T21:06:16.104Z,56.38
2022-12-16T21:09:01.219Z,54.58
2022-12-16T21:11:47.805Z,54.65
2022-12-16T21:14:32.876Z,56.65
2022-12-16T21:17:18.237Z,56.13
2022-12-16T21:20:03.305Z,56.10
2022-12-16T21:22:48.548Z,52.95
2022-12-16T21:25:34.009Z,53.30
2022-12-16T21:28:19.143Z,59.85
2022-12-16T21:31:04.497Z,54.08
2022-12-16T21:33:49.799Z,63.67
2022-12-16T21:36:35.403Z,53.22
2022-12-16T21:39:20.565Z,54.58
2022-12-16T21:42:05.866Z,59.15
2022-12-16T21:44:50.966Z,53.67
2022-12-16T21:47:36.787Z,56.38
2022-12-16T21:50:21.824Z,59.38
2022-12-16T21:53:08.060Z,59.33
2022-12-16T21:55:53.387Z,54.13
2022-12-16T21:58:39.067Z,56.58
2022-12-16T22:01:24.405Z,49.65
2022-12-16T22:04:09.602Z,58.38
2022-12-16T22:06:54.880Z,51.15
2022-12-16T22:09:40.460Z,50.83
2022-12-16T22:12:25.880Z,52.00
2022-12-16T22:15:10.975Z,48.67
2022-12-16T22:17:58.507Z,57.53
2022-12-16T22:20:44.596Z,50.78
2022-12-16T22:23:30.045Z,54.58
2022-12-16T22:26:24.288Z,54.35
2022-12-16T22:29:12.453Z,50.97
2022-12-16T22:31:58.272Z,49.13
2022-12-16T22:34:43.326Z,48.03
2022-12-16T22:37:28.708Z,46.35
2022-12-16T22:40:13.701Z,46.42
2022-12-16T22:42:59.208Z,44.40
2022-12-16T22:45:44.238Z,48.28
2022-12-16T22:48:31.068Z,42.90
2022-12-16T22:51:16.385Z,46.20
2022-12-16T22:54:01.398Z,47.70
2022-12-16T22:56:46.711Z,50.90
2022-12-16T22:59:32.007Z,46.03
2022-12-16T23:02:17.451Z,44.05
2022-12-16T23:05:02.879Z,45.28
2022-12-16T23:07:48.267Z,46.15
2022-12-16T23:10:33.696Z,44.38
2022-12-16T23:13:19.034Z,43.90
2022-12-16T23:16:04.609Z,42.67
2022-12-16T23:18:52.076Z,46.70
2022-12-16T23:21:37.945Z,41.78
2022-12-16T23:24:23.923Z,42.40
2022-12-16T23:27:09.463Z,44.20
2022-12-16T23:29:56.742Z,45.58
2022-12-16T23:32:59.560Z,44.30
2022-12-16T23:35:44.819Z,42.20
2022-12-16T23:38:30.169Z,39.05
2022-12-16T23:41:16.671Z,41.13
2022-12-16T23:44:02.374Z,40.63
2022-12-16T23:46:47.902Z,42.72
2022-12-16T23:49:32.958Z,48.65
2022-12-16T23:52:18.253Z,38.97
2022-12-16T23:54:52.044Z,42.53
2022-12-16T23:57:37.472Z,43.90
